createdAt,value
2018-04-17T00:00:45.406Z,0
2018-04-17T00:01:42.750Z,0
2018-04-17T00:02:42.757Z,0
2018-04-17T00:03:42.476Z,0
2018-04-17T00:04:42.734Z,0
2018-04-17T00:05:42.729Z,0
2018-04-17T00:06:42.731Z,0
2018-04-17T00:07:42.483Z,0
2018-04-17T00:08:42.721Z,0
2018-04-17T00:09:42.219Z,0
2018-04-17T00:10:42.473Z,0
2018-04-17T00:11:43.006Z,0
2018-04-17T00:12:42.461Z,0
2018-04-17T00:13:42.209Z,0
2018-04-17T00:14:42.467Z,0
2018-04-17T00:15:42.223Z,0
2018-04-17T00:16:42.865Z,0
2018-04-17T00:17:42.470Z,0
2018-04-17T00:18:42.455Z,0
2018-04-17T00:19:42.700Z,0
2018-04-17T00:20:42.442Z,0
2018-04-17T00:21:42.435Z,0
2018-04-17T00:22:42.690Z,0
2018-04-17T00:23:42.432Z,0
2018-04-17T00:24:42.180Z,0
2018-04-17T00:25:42.682Z,0
2018-04-17T00:26:42.676Z,0
2018-04-17T00:27:42.178Z,0
2018-04-17T00:28:42.428Z,0
2018-04-17T00:29:42.185Z,0
2018-04-17T00:30:42.428Z,0
2018-04-17T00:31:42.416Z,0
2018-04-17T00:32:42.173Z,0
2018-04-17T00:33:42.166Z,0
2018-04-17T00:34:42.173Z,0
2018-04-17T00:35:42.448Z,0
2018-04-17T00:36:42.654Z,0
2018-04-17T00:37:42.713Z,0
2018-04-17T00:38:42.659Z,0
2018-04-17T00:39:42.658Z,0
2018-04-17T00:40:42.418Z,0
2018-04-17T00:41:42.390Z,0
2018-04-17T00:42:42.406Z,0
2018-04-17T00:43:42.389Z,0
2018-04-17T00:44:42.656Z,0
2018-04-17T00:45:42.380Z,0
2018-04-17T00:46:42.878Z,0
2018-04-17T00:47:42.382Z,0
2018-04-17T00:48:42.631Z,0
2018-04-17T00:49:42.638Z,0
2018-04-17T00:50:42.374Z,0
2018-04-17T00:51:42.624Z,0
2018-04-17T00:52:42.614Z,0
2018-04-17T00:53:42.117Z,0
2018-04-17T00:54:42.619Z,0
2018-04-17T00:55:42.623Z,0
2018-04-17T00:56:42.108Z,0
2018-04-17T00:57:42.373Z,0
2018-04-17T00:58:42.617Z,0
2018-04-17T00:59:42.621Z,0
2018-04-17T01:00:42.100Z,0
2018-04-17T01:01:46.653Z,0
2018-04-17T01:02:42.339Z,0
2018-04-17T01:03:42.601Z,0
2018-04-17T01:04:42.340Z,0
2018-04-17T01:05:42.581Z,0
2018-04-17T01:06:42.349Z,0
2018-04-17T01:07:42.580Z,0
2018-04-17T01:08:42.577Z,0
2018-04-17T01:09:42.566Z,0
2018-04-17T01:10:42.328Z,0
2018-04-17T01:11:42.583Z,0
2018-04-17T01:12:42.597Z,0
2018-04-17T01:13:42.581Z,0
2018-04-17T01:14:42.320Z,0
2018-04-17T01:15:42.315Z,0
2018-04-17T01:16:42.309Z,0
2018-04-17T01:17:42.569Z,0
2018-04-17T01:18:42.564Z,0
2018-04-17T01:19:42.307Z,0
2018-04-17T01:20:42.552Z,0
2018-04-17T01:21:42.546Z,0
2018-04-17T01:22:42.558Z,0
2018-04-17T01:23:42.538Z,0
2018-04-17T01:24:42.042Z,0
2018-04-17T01:25:42.304Z,0
2018-04-17T01:26:42.288Z,0
2018-04-17T01:27:42.534Z,0
2018-04-17T01:28:42.272Z,0
2018-04-17T01:29:42.274Z,0
2018-04-17T01:30:42.270Z,0
2018-04-17T01:31:42.031Z,0
2018-04-17T01:32:43.079Z,0
2018-04-17T01:33:42.267Z,0
2018-04-17T01:34:42.519Z,0
2018-04-17T01:35:42.258Z,0
2018-04-17T01:36:42.253Z,0
2018-04-17T01:37:42.248Z,0
2018-04-17T01:38:42.258Z,0
2018-04-17T01:39:42.001Z,0
2018-04-17T01:40:41.504Z,0
2018-04-17T01:41:42.018Z,0
2018-04-17T01:42:42.236Z,0
2018-04-17T01:43:42.245Z,0
2018-04-17T01:44:42.249Z,0
2018-04-17T01:45:42.280Z,0
2018-04-17T01:46:42.477Z,0
2018-04-17T01:47:45.980Z,0
2018-04-17T01:48:42.216Z,0
2018-04-17T01:49:41.969Z,0
2018-04-17T01:50:42.003Z,0
2018-04-17T01:51:41.972Z,0
2018-04-17T01:52:41.964Z,0
2018-04-17T01:53:42.468Z,0
2018-04-17T01:54:42.208Z,0
2018-04-17T01:55:42.216Z,0
2018-04-17T01:56:42.195Z,0
2018-04-17T01:57:41.960Z,0
2018-04-17T01:58:42.202Z,0
2018-04-17T01:59:42.446Z,0
2018-04-17T02:00:42.212Z,0
2018-04-17T02:01:42.457Z,0
2018-04-17T02:02:42.590Z,0
2018-04-17T02:03:42.184Z,0
2018-04-17T02:04:42.445Z,0
2018-04-17T02:05:42.428Z,0
2018-04-17T02:06:41.922Z,0
2018-04-17T02:07:42.434Z,0
2018-04-17T02:08:42.180Z,0
2018-04-17T02:09:42.402Z,0
2018-04-17T02:10:42.197Z,0
2018-04-17T02:11:42.162Z,0
2018-04-17T02:12:42.151Z,0
2018-04-17T02:13:42.161Z,0
2018-04-17T02:14:42.155Z,0
2018-04-17T02:15:42.411Z,0
2018-04-17T02:16:42.148Z,0
2018-04-17T02:17:42.404Z,0
2018-04-17T02:18:42.140Z,0
2018-04-17T02:19:42.414Z,0
2018-04-17T02:20:42.374Z,0
2018-04-17T02:21:42.136Z,0
2018-04-17T02:22:42.374Z,0
2018-04-17T02:23:42.125Z,0
2018-04-17T02:24:42.367Z,0
2018-04-17T02:25:42.365Z,0
2018-04-17T02:26:42.126Z,0
2018-04-17T02:27:42.116Z,0
2018-04-17T02:28:42.106Z,0
2018-04-17T02:29:41.857Z,0
2018-04-17T02:30:42.366Z,0
2018-04-17T02:31:42.096Z,0
2018-04-17T02:32:42.604Z,0
2018-04-17T02:33:41.855Z,0
2018-04-17T02:34:42.090Z,0
2018-04-17T02:35:42.078Z,0
2018-04-17T02:36:41.887Z,0
2018-04-17T02:37:41.842Z,0
2018-04-17T02:38:42.079Z,0
2018-04-17T02:39:42.326Z,0
2018-04-17T02:40:42.348Z,0
2018-04-17T02:41:42.334Z,0
2018-04-17T02:42:42.074Z,0
2018-04-17T02:43:42.076Z,0
2018-04-17T02:44:42.334Z,0
2018-04-17T02:45:42.303Z,0
2018-04-17T02:46:41.810Z,0
2018-04-17T02:47:42.814Z,0
2018-04-17T02:48:42.301Z,0
2018-04-17T02:49:42.044Z,0
2018-04-17T02:50:42.303Z,0
2018-04-17T02:51:42.042Z,0
2018-04-17T02:52:41.808Z,0
2018-04-17T02:53:42.040Z,0
2018-04-17T02:54:42.040Z,0
2018-04-17T02:55:42.284Z,0
2018-04-17T02:56:42.270Z,0
2018-04-17T02:57:42.021Z,0
2018-04-17T02:58:42.260Z,0
2018-04-17T02:59:42.024Z,0
2018-04-17T03:00:41.769Z,0
2018-04-17T03:01:41.747Z,0
2018-04-17T03:02:43.492Z,0
2018-04-17T03:03:42.004Z,0
2018-04-17T03:04:41.747Z,0
2018-04-17T03:05:41.759Z,0
2018-04-17T03:06:42.243Z,0
2018-04-17T03:07:41.986Z,0
2018-04-17T03:08:41.995Z,0
2018-04-17T03:09:41.998Z,0
2018-04-17T03:10:41.474Z,0
2018-04-17T03:11:41.975Z,0
2018-04-17T03:12:41.964Z,0
2018-04-17T03:13:41.983Z,0
2018-04-17T03:14:41.747Z,0
2018-04-17T03:15:41.971Z,0
2018-04-17T03:16:41.456Z,0
2018-04-17T03:17:41.946Z,0
2018-04-17T03:18:44.590Z,0
2018-04-17T03:19:41.691Z,0
2018-04-17T03:20:41.939Z,0
2018-04-17T03:21:41.703Z,0
2018-04-17T03:22:41.932Z,0
2018-04-17T03:23:42.195Z,0
2018-04-17T03:24:41.691Z,0
2018-04-17T03:25:41.952Z,0
2018-04-17T03:26:41.917Z,0
2018-04-17T03:27:41.918Z,0
2018-04-17T03:28:42.182Z,0
2018-04-17T03:29:42.160Z,0
2018-04-17T03:37:35.993Z,0
2018-04-17T03:37:51.632Z,0
2018-04-17T03:38:51.367Z,0
2018-04-17T03:39:51.373Z,0
2018-04-17T03:40:51.611Z,0
2018-04-17T03:41:51.358Z,0
2018-04-17T03:42:51.376Z,0
2018-04-17T03:43:51.095Z,0
2018-04-17T03:44:51.610Z,0
2018-04-17T03:45:51.347Z,0
2018-04-17T03:46:51.342Z,0
2018-04-17T03:47:51.589Z,0
2018-04-17T03:48:51.355Z,0
2018-04-17T03:49:51.343Z,0
2018-04-17T03:50:51.369Z,0
2018-04-17T03:51:51.330Z,0
2018-04-17T03:52:51.580Z,0
2018-04-17T03:53:51.575Z,0
2018-04-17T03:54:51.351Z,0
2018-04-17T03:55:50.574Z,0
2018-04-17T03:56:51.302Z,0
2018-04-17T03:57:51.560Z,0
2018-04-17T03:58:51.544Z,0
2018-04-17T03:59:51.287Z,0
2018-04-17T04:00:51.318Z,0
2018-04-17T04:01:51.576Z,0
2018-04-17T04:02:51.592Z,0
2018-04-17T04:03:51.282Z,0
2018-04-17T04:04:51.558Z,0
2018-04-17T04:05:51.531Z,0
2018-04-17T04:06:51.522Z,0
2018-04-17T04:07:54.432Z,0
2018-04-17T04:08:51.509Z,0
2018-04-17T04:09:51.260Z,0
2018-04-17T04:10:51.252Z,0
2018-04-17T04:11:51.510Z,0
2018-04-17T04:12:51.499Z,0
2018-04-17T04:13:51.253Z,0
2018-04-17T04:14:51.230Z,0
2018-04-17T04:15:51.484Z,0
2018-04-17T04:16:51.272Z,0
2018-04-17T04:17:51.243Z,0
2018-04-17T04:18:50.982Z,0
2018-04-17T04:19:51.215Z,0
2018-04-17T04:20:51.484Z,0
2018-04-17T04:21:51.217Z,0
2018-04-17T04:22:51.459Z,0
2018-04-17T04:23:51.212Z,5
2018-04-17T04:24:50.973Z,5
2018-04-17T04:25:51.198Z,5
2018-04-17T04:26:51.201Z,5
2018-04-17T04:27:50.945Z,5
2018-04-17T04:28:51.425Z,5
2018-04-17T04:29:51.179Z,5
2018-04-17T04:30:50.697Z,10
2018-04-17T04:31:51.181Z,10
2018-04-17T04:32:50.683Z,10
2018-04-17T04:33:51.440Z,10
2018-04-17T04:34:51.573Z,10
2018-04-17T04:35:51.447Z,15
2018-04-17T04:36:51.400Z,15
2018-04-17T04:37:55.101Z,15
2018-04-17T04:38:51.390Z,15
2018-04-17T04:39:50.906Z,20
2018-04-17T04:40:51.153Z,20
2018-04-17T04:41:51.133Z,20
2018-04-17T04:42:50.878Z,20
2018-04-17T04:43:51.128Z,25
2018-04-17T04:44:51.378Z,25
2018-04-17T04:45:51.380Z,25
2018-04-17T04:46:50.620Z,25
2018-04-17T04:47:51.380Z,30
2018-04-17T04:48:50.607Z,30
2018-04-17T04:49:51.117Z,30
2018-04-17T04:50:51.352Z,35
2018-04-17T04:51:50.599Z,35
2018-04-17T04:52:51.366Z,35
2018-04-17T04:53:51.090Z,40
2018-04-17T04:54:51.343Z,40
2018-04-17T04:55:51.097Z,40
2018-04-17T04:56:51.354Z,45
2018-04-17T04:57:50.612Z,55
2018-04-17T04:58:51.075Z,65
2018-04-17T04:59:51.064Z,70
2018-04-17T05:00:50.817Z,75
2018-04-17T05:01:51.307Z,80
2018-04-17T05:02:51.059Z,85
2018-04-17T05:03:51.052Z,85
2018-04-17T05:04:51.466Z,90
2018-04-17T05:05:51.309Z,95
2018-04-17T05:06:51.308Z,100
2018-04-17T05:07:51.041Z,100
2018-04-17T05:08:52.597Z,105
2018-04-17T05:09:51.292Z,110
2018-04-17T05:10:51.284Z,105
2018-04-17T05:11:51.305Z,110
2018-04-17T05:12:51.357Z,110
2018-04-17T05:13:51.289Z,105
2018-04-17T05:14:51.045Z,100
2018-04-17T05:15:51.308Z,100
2018-04-17T05:16:51.058Z,95
2018-04-17T05:17:51.269Z,140
2018-04-17T05:18:51.339Z,140
2018-04-17T05:19:51.039Z,145
2018-04-17T05:20:51.292Z,145
2018-04-17T05:21:51.315Z,150
2018-04-17T05:22:51.083Z,95
2018-04-17T05:23:51.117Z,110
2018-04-17T05:24:51.027Z,105
2018-04-17T05:25:51.060Z,110
2018-04-17T05:26:51.032Z,115
2018-04-17T05:27:51.284Z,110
2018-04-17T05:28:51.032Z,110
2018-04-17T05:29:50.777Z,110
2018-04-17T05:30:51.262Z,115
2018-04-17T05:31:51.279Z,120
2018-04-17T05:32:51.277Z,135
2018-04-17T05:33:51.291Z,145
2018-04-17T05:34:50.519Z,155
2018-04-17T05:35:51.014Z,115
2018-04-17T05:36:51.011Z,165
2018-04-17T05:37:50.775Z,175
2018-04-17T05:38:52.270Z,170
2018-04-17T05:39:51.012Z,185
2018-04-17T05:40:51.316Z,190
2018-04-17T05:41:50.789Z,195
2018-04-17T05:42:51.016Z,200
2018-04-17T05:43:51.273Z,205
2018-04-17T05:44:51.259Z,210
2018-04-17T05:45:50.774Z,210
2018-04-17T05:46:51.042Z,210
2018-04-17T05:47:51.018Z,215
2018-04-17T05:48:51.033Z,220
2018-04-17T05:49:51.278Z,220
2018-04-17T05:50:50.780Z,220
2018-04-17T05:51:51.027Z,135
2018-04-17T05:52:51.048Z,135
2018-04-17T05:53:51.822Z,140
2018-04-17T05:54:51.287Z,150
2018-04-17T05:55:51.222Z,160
2018-04-17T05:56:51.295Z,165
2018-04-17T05:57:51.046Z,175
2018-04-17T05:58:51.292Z,175
2018-04-17T05:59:51.335Z,175
2018-04-17T06:00:51.290Z,175
2018-04-17T06:01:51.049Z,175
2018-04-17T06:02:51.052Z,175
2018-04-17T06:03:51.062Z,170
2018-04-17T06:04:51.287Z,170
2018-04-17T06:05:51.291Z,170
2018-04-17T06:06:50.803Z,175
2018-04-17T06:07:51.308Z,175
2018-04-17T06:08:54.807Z,175
2018-04-17T06:09:50.804Z,175
2018-04-17T06:10:51.293Z,180
2018-04-17T06:11:51.051Z,175
2018-04-17T06:12:50.836Z,180
2018-04-17T06:22:15.640Z,240
2018-04-17T06:23:15.648Z,250
2018-04-17T06:24:15.896Z,265
2018-04-17T06:25:17.526Z,280
2018-04-17T06:26:16.059Z,280
2018-04-17T06:27:16.127Z,285
2018-04-17T06:28:15.648Z,285
2018-04-17T06:29:15.645Z,290
2018-04-17T06:30:17.508Z,285
2018-04-17T06:31:15.879Z,290
2018-04-17T06:32:15.895Z,290
2018-04-17T06:33:16.132Z,295
2018-04-17T06:34:15.884Z,295
2018-04-17T06:35:17.066Z,295
2018-04-17T06:36:15.884Z,300
2018-04-17T06:37:15.659Z,300
2018-04-17T06:38:16.140Z,300
2018-04-17T06:39:15.892Z,300
2018-04-17T06:40:17.287Z,310
2018-04-17T06:41:15.649Z,305
2018-04-17T06:42:20.177Z,310
2018-04-17T06:43:16.181Z,310
2018-04-17T06:44:15.939Z,310
2018-04-17T06:45:17.557Z,320
2018-04-17T06:46:16.176Z,315
2018-04-17T06:47:16.279Z,315
2018-04-17T06:48:15.427Z,320
2018-04-17T06:49:15.948Z,320
2018-04-17T06:50:17.354Z,320
2018-04-17T06:51:16.200Z,325
2018-04-17T06:52:16.206Z,325
2018-04-17T06:53:16.001Z,325
2018-04-17T06:54:16.210Z,325
2018-04-17T06:55:17.585Z,325
2018-04-17T06:56:16.230Z,325
2018-04-17T06:57:15.977Z,335
2018-04-17T06:58:15.786Z,330
2018-04-17T06:59:15.979Z,330
2018-04-17T07:00:17.075Z,330
2018-04-17T07:01:16.012Z,335
2018-04-17T07:02:16.015Z,335
2018-04-17T07:03:16.009Z,335
2018-04-17T07:04:15.800Z,335
2018-04-17T07:05:17.836Z,335
2018-04-17T07:06:16.287Z,335
2018-04-17T07:07:16.028Z,340
2018-04-17T07:08:16.037Z,340
2018-04-17T07:09:16.061Z,340
2018-04-17T07:10:17.707Z,340
2018-04-17T07:11:16.299Z,340
2018-04-17T07:12:18.221Z,340
2018-04-17T07:13:16.073Z,340
2018-04-17T07:14:15.829Z,340
2018-04-17T07:15:17.365Z,340
2018-04-17T07:16:16.337Z,345
2018-04-17T07:17:16.104Z,345
2018-04-17T07:18:16.359Z,340
2018-04-17T07:19:16.113Z,335
2018-04-17T07:20:17.758Z,325
2018-04-17T07:21:16.380Z,310
2018-04-17T07:22:16.123Z,295
2018-04-17T07:23:16.139Z,270
2018-04-17T07:24:16.136Z,255
2018-04-17T07:25:17.673Z,240
2018-04-17T07:26:15.911Z,235
2018-04-17T07:27:19.162Z,230
2018-04-17T07:28:16.415Z,240
2018-04-17T07:29:16.429Z,235
2018-04-17T07:30:17.445Z,230
2018-04-17T07:31:16.186Z,230
2018-04-17T07:32:15.954Z,230
2018-04-17T07:33:16.190Z,250
2018-04-17T07:34:16.445Z,275
2018-04-17T07:35:17.313Z,295
2018-04-17T07:36:16.193Z,300
2018-04-17T07:37:16.212Z,295
2018-04-17T07:38:16.219Z,280
2018-04-17T07:39:15.971Z,250
2018-04-17T07:40:17.612Z,240
2018-04-17T07:41:15.973Z,240
2018-04-17T07:42:15.740Z,240
2018-04-17T07:43:16.683Z,245
2018-04-17T07:44:16.236Z,260
2018-04-17T07:45:17.099Z,275
2018-04-17T07:46:16.253Z,290
2018-04-17T07:47:16.504Z,295
2018-04-17T07:48:16.008Z,295
2018-04-17T07:49:16.011Z,295
2018-04-17T07:50:17.078Z,290
2018-04-17T07:51:16.521Z,290
2018-04-17T07:52:16.277Z,290
2018-04-17T07:53:16.531Z,290
2018-04-17T07:54:16.283Z,285
2018-04-17T07:55:17.666Z,290
2018-04-17T07:56:16.304Z,290
2018-04-17T07:57:16.065Z,300
2018-04-17T07:58:16.309Z,300
2018-04-17T07:59:16.559Z,310
2018-04-17T08:00:17.438Z,305
2018-04-17T08:01:16.629Z,300
2018-04-17T08:02:16.572Z,310
2018-04-17T08:03:16.588Z,310
2018-04-17T08:04:16.337Z,310
2018-04-17T08:05:17.236Z,310
2018-04-17T08:06:16.421Z,305
2018-04-17T08:07:16.605Z,305
2018-04-17T08:08:16.389Z,295
2018-04-17T08:09:16.384Z,295
2018-04-17T08:10:17.124Z,300
2018-04-17T08:11:16.151Z,300
2018-04-17T08:12:16.136Z,305
2018-04-17T08:13:20.668Z,300
2018-04-17T08:14:16.676Z,300
2018-04-17T08:15:18.124Z,300
2018-04-17T08:16:16.186Z,300
2018-04-17T08:17:16.430Z,300
2018-04-17T08:18:16.437Z,300
2018-04-17T08:19:16.433Z,300
2018-04-17T08:20:18.137Z,300
2018-04-17T08:21:16.453Z,300
2018-04-17T08:22:15.953Z,300
2018-04-17T08:23:16.736Z,300
2018-04-17T08:24:16.473Z,295
2018-04-17T08:25:17.731Z,295
2018-04-17T08:26:15.987Z,295
2018-04-17T08:27:16.487Z,295
2018-04-17T08:28:18.099Z,295
2018-04-17T08:29:15.995Z,290
2018-04-17T08:30:18.375Z,290
2018-04-17T08:31:16.772Z,295
2018-04-17T08:32:16.544Z,295
2018-04-17T08:33:16.538Z,290
2018-04-17T08:34:16.288Z,295
2018-04-17T08:35:18.036Z,290
2018-04-17T08:36:16.555Z,290
2018-04-17T08:37:16.823Z,295
2018-04-17T08:38:16.333Z,290
2018-04-17T08:39:16.582Z,290
2018-04-17T08:40:18.170Z,285
2018-04-17T08:41:16.607Z,285
2018-04-17T08:42:16.093Z,280
2018-04-17T08:43:17.722Z,275
2018-04-17T08:44:16.898Z,270
2018-04-17T08:45:17.605Z,275
2018-04-17T08:46:16.124Z,270
2018-04-17T08:47:16.641Z,275
2018-04-17T08:48:16.629Z,275
2018-04-17T08:49:16.648Z,270
2018-04-17T08:50:18.415Z,270
2018-04-17T08:51:16.903Z,270
2018-04-17T08:52:16.911Z,270
2018-04-17T08:53:16.663Z,270
2018-04-17T08:54:16.680Z,270
2018-04-17T08:55:18.436Z,270
2018-04-17T08:56:17.004Z,270
2018-04-17T08:57:16.696Z,270
2018-04-17T08:58:18.689Z,270
2018-04-17T08:59:16.694Z,270
2018-04-17T09:00:17.648Z,270
2018-04-17T09:01:16.716Z,270
2018-04-17T09:02:16.714Z,270
2018-04-17T09:03:16.710Z,270
2018-04-17T09:04:16.714Z,270
2018-04-17T09:05:18.326Z,270
2018-04-17T09:06:16.965Z,270
2018-04-17T09:07:16.715Z,270
2018-04-17T09:08:16.483Z,270
2018-04-17T09:09:16.520Z,270
2018-04-17T09:10:18.401Z,270
2018-04-17T09:11:16.745Z,270
2018-04-17T09:12:16.990Z,270
2018-04-17T09:13:16.773Z,270
2018-04-17T09:14:20.161Z,270
2018-04-17T09:15:18.637Z,275
2018-04-17T09:16:17.023Z,275
2018-04-17T09:17:16.988Z,275
2018-04-17T09:18:16.823Z,275
2018-04-17T09:19:16.776Z,275
2018-04-17T09:20:18.183Z,270
2018-04-17T09:21:16.324Z,270
2018-04-17T09:22:16.784Z,270
2018-04-17T09:23:16.789Z,270
2018-04-17T09:24:17.036Z,275
2018-04-17T09:25:18.645Z,270
2018-04-17T09:26:16.537Z,270
2018-04-17T09:27:16.544Z,270
2018-04-17T09:28:17.055Z,265
2018-04-17T09:29:17.396Z,270
2018-04-17T09:30:18.020Z,265
2018-04-17T09:31:16.805Z,265
2018-04-17T09:32:17.077Z,265
2018-04-17T09:33:17.007Z,265
2018-04-17T09:34:17.073Z,265
2018-04-17T09:35:17.592Z,265
2018-04-17T09:36:16.882Z,260
2018-04-17T09:37:16.580Z,260
2018-04-17T09:38:17.068Z,260
2018-04-17T09:39:16.840Z,260
2018-04-17T09:40:17.835Z,265
2018-04-17T09:41:17.085Z,260
2018-04-17T09:42:17.115Z,260
2018-04-17T09:43:17.114Z,260
2018-04-17T09:44:21.409Z,255
2018-04-17T09:45:17.527Z,260
2018-04-17T09:46:17.128Z,255
2018-04-17T09:47:16.855Z,255
2018-04-17T09:48:17.109Z,255
2018-04-17T09:49:16.861Z,255
2018-04-17T09:50:18.404Z,255
2018-04-17T09:51:17.138Z,255
2018-04-17T09:52:16.874Z,250
2018-04-17T09:53:17.122Z,250
2018-04-17T09:54:17.145Z,250
2018-04-17T09:55:18.771Z,250
2018-04-17T09:56:16.880Z,250
2018-04-17T09:57:16.917Z,245
2018-04-17T09:58:16.906Z,245
2018-04-17T09:59:16.659Z,245
2018-04-17T10:00:17.901Z,245
2018-04-17T10:01:16.662Z,245
2018-04-17T10:02:17.156Z,245
2018-04-17T10:03:17.153Z,245
2018-04-17T10:04:17.191Z,240
2018-04-17T10:05:18.176Z,240
2018-04-17T10:06:17.236Z,240
2018-04-17T10:07:17.170Z,240
2018-04-17T10:08:16.940Z,240
2018-04-17T10:09:17.159Z,240
2018-04-17T10:10:18.765Z,240
2018-04-17T10:11:16.939Z,240
2018-04-17T10:12:16.985Z,240
2018-04-17T10:13:16.957Z,235
2018-04-17T10:14:17.210Z,240
2018-04-17T10:15:18.353Z,245
2018-04-17T10:16:16.965Z,240
2018-04-17T10:17:16.857Z,240
2018-04-17T10:18:17.219Z,235
2018-04-17T10:19:16.738Z,235
2018-04-17T10:20:18.379Z,235
2018-04-17T10:21:17.249Z,235
2018-04-17T10:22:16.988Z,235
2018-04-17T10:53:04.767Z,225
2018-04-17T10:54:01.768Z,230
2018-04-17T10:55:01.829Z,230
2018-04-17T10:56:01.773Z,220
2018-04-17T10:57:01.534Z,220
2018-04-17T10:58:01.778Z,220
2018-04-17T10:59:01.778Z,225
2018-04-17T11:00:01.258Z,220
2018-04-17T11:01:01.767Z,225
2018-04-17T11:02:01.769Z,220
2018-04-17T11:03:01.537Z,220
2018-04-17T11:04:01.891Z,220
2018-04-17T11:05:01.932Z,215
2018-04-17T11:06:01.786Z,215
2018-04-17T11:07:01.776Z,215
2018-04-17T11:08:01.537Z,215
2018-04-17T11:09:02.052Z,215
2018-04-17T11:10:01.831Z,220
2018-04-17T11:11:01.828Z,220
2018-04-17T11:12:01.792Z,220
2018-04-17T11:13:01.833Z,215
2018-04-17T11:14:01.548Z,215
2018-04-17T11:15:01.588Z,210
2018-04-17T11:16:01.816Z,215
2018-04-17T11:17:01.832Z,215
2018-04-17T11:18:01.830Z,215
2018-04-17T11:19:02.068Z,215
2018-04-17T11:20:01.831Z,215
2018-04-17T11:21:02.114Z,215
2018-04-17T11:22:01.829Z,215
2018-04-17T11:23:02.878Z,210
2018-04-17T11:24:01.856Z,215
2018-04-17T11:25:01.854Z,210
2018-04-17T11:26:01.588Z,210
2018-04-17T11:27:01.609Z,210
2018-04-17T11:28:01.860Z,215
2018-04-17T11:29:02.156Z,210
2018-04-17T11:30:01.627Z,210
2018-04-17T11:31:02.122Z,210
2018-04-17T11:32:01.626Z,210
2018-04-17T11:33:01.868Z,210
2018-04-17T11:34:02.128Z,210
2018-04-17T11:35:02.130Z,210
2018-04-17T11:36:02.135Z,210
2018-04-17T11:37:02.123Z,210
2018-04-17T11:38:02.063Z,210
2018-04-17T11:39:01.941Z,210
2018-04-17T11:40:02.148Z,210
2018-04-17T11:41:01.892Z,210
2018-04-17T11:42:01.893Z,215
2018-04-17T11:43:01.793Z,210
2018-04-17T11:44:01.962Z,210
2018-04-17T11:45:01.648Z,210
2018-04-17T11:46:02.172Z,210
2018-04-17T11:47:02.165Z,205
2018-04-17T11:48:01.673Z,205
2018-04-17T11:49:01.919Z,210
2018-04-17T11:50:01.679Z,210
2018-04-17T11:51:01.944Z,210
2018-04-17T11:52:01.468Z,205
2018-04-17T11:53:05.493Z,205
2018-04-17T11:54:01.476Z,205
2018-04-17T11:55:01.737Z,210
2018-04-17T11:56:01.521Z,210
2018-04-17T11:57:01.741Z,210
2018-04-17T11:58:01.965Z,210
2018-04-17T11:59:02.211Z,215
2018-04-17T12:00:02.213Z,210
2018-04-17T12:01:01.980Z,210
2018-04-17T12:02:01.966Z,210
2018-04-17T12:03:02.227Z,210
2018-04-17T12:04:01.973Z,210
2018-04-17T12:05:01.975Z,210
2018-04-17T12:06:01.983Z,210
2018-04-17T12:07:01.987Z,210
2018-04-17T12:08:01.741Z,210
2018-04-17T12:09:02.146Z,205
2018-04-17T12:10:02.252Z,205
2018-04-17T12:11:01.751Z,205
2018-04-17T12:12:01.771Z,205
2018-04-17T12:13:01.769Z,205
2018-04-17T12:14:02.380Z,210
2018-04-17T12:15:02.027Z,205
2018-04-17T12:16:02.023Z,200
2018-04-17T12:17:02.060Z,200
2018-04-17T12:18:02.046Z,200
2018-04-17T12:19:02.832Z,200
2018-04-17T12:20:01.803Z,200
2018-04-17T12:21:02.042Z,200
2018-04-17T12:22:02.336Z,200
2018-04-17T12:23:02.053Z,200
2018-04-17T12:24:03.442Z,200
2018-04-17T12:25:02.095Z,200
2018-04-17T12:26:02.463Z,200
2018-04-17T12:27:01.822Z,200
2018-04-17T12:28:02.097Z,200
2018-04-17T12:29:02.322Z,200
2018-04-17T12:30:02.085Z,200
2018-04-17T12:31:01.826Z,200
2018-04-17T12:32:02.349Z,200
2018-04-17T12:33:02.133Z,200
2018-04-17T12:34:02.347Z,200
2018-04-17T12:35:02.342Z,200
2018-04-17T12:36:02.407Z,200
2018-04-17T12:37:01.901Z,200
2018-04-17T12:38:02.114Z,195
2018-04-17T12:39:01.870Z,195
2018-04-17T12:40:02.127Z,200
2018-04-17T12:41:02.122Z,200
2018-04-17T12:42:02.378Z,200
2018-04-17T12:43:02.120Z,200
2018-04-17T12:44:01.885Z,200
2018-04-17T12:45:01.947Z,200
2018-04-17T12:46:01.890Z,195
2018-04-17T12:47:02.156Z,195
2018-04-17T12:48:01.665Z,195
2018-04-17T12:49:02.443Z,195
2018-04-17T12:50:02.162Z,195
2018-04-17T12:51:02.412Z,195
2018-04-17T12:52:01.988Z,195
2018-04-17T12:53:01.922Z,195
2018-04-17T12:54:02.183Z,195
2018-04-17T12:55:02.192Z,195
2018-04-17T12:56:02.182Z,195
2018-04-17T12:57:02.194Z,195
2018-04-17T12:58:02.193Z,195
2018-04-17T12:59:01.963Z,195
2018-04-17T13:00:01.959Z,195
2018-04-17T13:01:02.201Z,195
2018-04-17T13:02:02.217Z,190
2018-04-17T13:03:02.478Z,195
2018-04-17T13:04:02.218Z,195
2018-04-17T13:05:02.475Z,200
2018-04-17T13:06:02.491Z,205
2018-04-17T13:07:01.725Z,205
2018-04-17T13:08:02.226Z,210
2018-04-17T13:09:02.343Z,205
2018-04-17T13:10:02.527Z,205
2018-04-17T13:11:02.238Z,205
2018-04-17T13:12:02.027Z,205
2018-04-17T13:13:02.315Z,205
2018-04-17T13:14:02.269Z,210
2018-04-17T13:15:02.260Z,205
2018-04-17T13:16:01.775Z,205
2018-04-17T13:17:02.040Z,205
2018-04-17T13:18:02.032Z,205
2018-04-17T13:19:02.038Z,205
2018-04-17T13:20:02.283Z,200
2018-04-17T13:21:02.037Z,200
2018-04-17T13:22:02.293Z,195
2018-04-17T13:23:02.304Z,190
2018-04-17T13:24:02.768Z,190
2018-04-17T13:25:02.567Z,185
2018-04-17T13:26:02.610Z,185
2018-04-17T13:27:02.334Z,185
2018-04-17T13:28:02.336Z,185
2018-04-17T13:29:02.353Z,185
2018-04-17T13:30:02.599Z,185
2018-04-17T13:31:02.090Z,185
2018-04-17T13:32:02.339Z,190
2018-04-17T13:33:01.857Z,190
2018-04-17T13:34:02.349Z,190
2018-04-17T13:35:02.119Z,185
2018-04-17T13:36:02.359Z,190
2018-04-17T13:37:02.386Z,190
2018-04-17T13:38:02.157Z,190
2018-04-17T13:39:02.729Z,195
2018-04-17T13:40:02.155Z,190
2018-04-17T13:41:02.399Z,190
2018-04-17T13:42:02.408Z,190
2018-04-17T13:43:01.935Z,190
2018-04-17T13:44:02.468Z,190
2018-04-17T13:45:02.415Z,190
2018-04-17T13:46:02.415Z,190
2018-04-17T13:47:02.415Z,190
2018-04-17T13:48:02.174Z,190
2018-04-17T13:49:02.729Z,190
2018-04-17T13:50:02.432Z,190
2018-04-17T13:51:02.435Z,190
2018-04-17T13:52:02.675Z,190
2018-04-17T13:53:02.438Z,190
2018-04-17T13:54:03.340Z,190
2018-04-17T13:55:02.702Z,190
2018-04-17T13:56:02.210Z,190
2018-04-17T13:57:02.715Z,190
2018-04-17T13:58:02.704Z,190
2018-04-17T13:59:02.705Z,190
2018-04-17T14:00:02.490Z,190
2018-04-17T14:01:02.232Z,190
2018-04-17T14:02:02.519Z,190
2018-04-17T14:03:02.526Z,190
2018-04-17T14:04:02.228Z,190
2018-04-17T14:05:01.988Z,195
2018-04-17T14:06:02.492Z,190
2018-04-17T14:07:02.738Z,195
2018-04-17T14:08:02.262Z,190
2018-04-17T14:09:02.774Z,190
2018-04-17T14:10:02.401Z,195
2018-04-17T14:11:02.792Z,195
2018-04-17T14:12:02.790Z,190
2018-04-17T14:13:02.534Z,195
2018-04-17T14:14:02.791Z,190
2018-04-17T14:15:02.289Z,190
2018-04-17T14:16:02.287Z,190
2018-04-17T14:17:02.537Z,195
2018-04-17T14:18:02.793Z,190
2018-04-17T14:19:02.307Z,190
2018-04-17T14:20:02.310Z,185
2018-04-17T14:21:02.310Z,190
2018-04-17T14:22:02.318Z,195
2018-04-17T14:23:02.312Z,190
2018-04-17T14:24:02.833Z,190
2018-04-17T14:25:05.497Z,190
2018-04-17T14:26:02.847Z,185
2018-04-17T14:27:02.091Z,185
2018-04-17T14:28:02.853Z,185
2018-04-17T14:29:02.593Z,185
2018-04-17T14:30:02.857Z,180
2018-04-17T14:31:02.096Z,185
2018-04-17T14:32:02.618Z,175
2018-04-17T14:33:02.626Z,175
2018-04-17T14:34:02.870Z,175
2018-04-17T14:35:02.862Z,180
2018-04-17T14:36:02.381Z,175
2018-04-17T14:37:02.370Z,175
2018-04-17T14:38:02.384Z,175
2018-04-17T14:39:02.382Z,175
2018-04-17T14:40:02.964Z,175
2018-04-17T14:41:02.421Z,175
2018-04-17T14:42:02.650Z,175
2018-04-17T14:43:02.722Z,175
2018-04-17T14:44:02.414Z,175
2018-04-17T14:45:02.912Z,180
2018-04-17T14:46:02.911Z,180
2018-04-17T14:47:02.423Z,180
2018-04-17T14:48:02.915Z,180
2018-04-17T14:49:02.684Z,180
2018-04-17T14:50:02.442Z,180